createdAt,value
2017-03-16T00:01:08.748Z,0
2017-03-16T00:01:49.203Z,0
2017-03-16T00:02:29.673Z,0
2017-03-16T00:03:10.139Z,0
2017-03-16T00:03:50.602Z,0
2017-03-16T00:04:31.046Z,0
2017-03-16T00:05:11.480Z,0
2017-03-16T00:07:24.215Z,0
2017-03-16T00:08:04.683Z,0
2017-03-16T00:08:45.146Z,0
2017-03-16T00:09:25.583Z,0
2017-03-16T00:10:06.005Z,0
2017-03-16T00:10:46.437Z,0
2017-03-16T00:11:26.855Z,0
2017-03-16T00:12:07.237Z,0
2017-03-16T00:12:47.640Z,0
2017-03-16T00:13:28.066Z,0
2017-03-16T00:14:08.513Z,0
2017-03-16T00:16:26.244Z,0
2017-03-16T00:17:06.659Z,0
2017-03-16T00:17:47.089Z,0
2017-03-16T00:18:27.483Z,0
2017-03-16T00:19:07.894Z,0
2017-03-16T00:19:48.288Z,0
2017-03-16T00:20:28.719Z,0
2017-03-16T00:21:09.110Z,0
2017-03-16T00:21:49.525Z,0
2017-03-16T00:22:29.924Z,0
2017-03-16T00:24:47.717Z,0
2017-03-16T00:25:28.101Z,0
2017-03-16T00:26:08.517Z,0
2017-03-16T00:26:48.961Z,0
2017-03-16T00:29:21.816Z,0
2017-03-16T00:30:02.206Z,0
2017-03-16T00:30:42.597Z,0
2017-03-16T00:31:23.010Z,0
2017-03-16T00:33:55.879Z,0
2017-03-16T00:34:36.304Z,0
2017-03-16T00:35:16.690Z,0
2017-03-16T00:35:57.094Z,0
2017-03-16T00:36:37.474Z,0
2017-03-16T00:37:17.867Z,0
2017-03-16T00:39:50.743Z,0
2017-03-16T00:40:31.184Z,0
2017-03-16T00:41:11.591Z,0
2017-03-16T00:41:52.787Z,0
2017-03-16T00:44:25.678Z,0
2017-03-16T00:45:06.093Z,0
2017-03-16T00:45:46.482Z,0
2017-03-16T00:46:26.910Z,0
2017-03-16T00:47:07.297Z,0
2017-03-16T00:49:25.055Z,0
2017-03-16T00:50:05.461Z,0
2017-03-16T00:50:45.841Z,0
2017-03-16T00:51:26.261Z,0
2017-03-16T00:52:06.717Z,0
2017-03-16T00:52:47.091Z,0
2017-03-16T00:53:27.494Z,0
2017-03-16T00:54:07.936Z,0
2017-03-16T00:56:35.736Z,0
2017-03-16T00:57:16.243Z,0
2017-03-16T00:57:56.591Z,0
2017-03-16T00:58:37.028Z,0
2017-03-16T00:59:17.468Z,0
2017-03-16T00:59:57.921Z,0
2017-03-16T01:00:38.335Z,0
2017-03-16T01:01:18.738Z,0
2017-03-16T01:01:59.203Z,0
2017-03-16T01:04:11.900Z,0
2017-03-16T01:04:52.304Z,0
2017-03-16T01:05:32.684Z,0
2017-03-16T01:06:13.086Z,0
2017-03-16T01:06:53.474Z,0
2017-03-16T01:07:33.854Z,0
2017-03-16T01:08:14.270Z,0
2017-03-16T01:08:54.664Z,0
2017-03-16T01:09:35.072Z,0
2017-03-16T01:10:15.491Z,0
2017-03-16T01:10:55.882Z,0
2017-03-16T01:11:36.254Z,0
2017-03-16T01:12:16.642Z,0
2017-03-16T01:12:57.006Z,0
2017-03-16T01:13:37.403Z,0
2017-03-16T01:14:17.799Z,0
2017-03-16T01:14:58.212Z,0
2017-03-16T01:15:38.612Z,0
2017-03-16T01:16:18.982Z,0
2017-03-16T01:16:59.410Z,0
2017-03-16T01:17:39.808Z,0
2017-03-16T01:18:20.209Z,0
2017-03-16T01:19:00.612Z,0
2017-03-16T01:19:41.021Z,0
2017-03-16T01:20:21.416Z,0
2017-03-16T01:21:01.841Z,0
2017-03-16T01:21:42.226Z,0
2017-03-16T01:22:22.624Z,0
2017-03-16T01:23:03.032Z,0
2017-03-16T01:23:43.421Z,0
2017-03-16T01:24:23.839Z,0
2017-03-16T01:26:41.615Z,0
2017-03-16T01:27:22.064Z,0
2017-03-16T01:28:02.508Z,0
2017-03-16T01:28:42.935Z,0
2017-03-16T01:29:23.367Z,0
2017-03-16T01:30:03.805Z,0
2017-03-16T01:30:44.247Z,0
2017-03-16T01:31:24.686Z,0
2017-03-16T01:32:05.112Z,0
2017-03-16T01:32:45.554Z,0
2017-03-16T01:33:25.990Z,0
2017-03-16T01:34:06.420Z,0
2017-03-16T01:34:47.505Z,0
2017-03-16T01:35:27.940Z,0
2017-03-16T01:37:45.679Z,0
2017-03-16T01:38:26.102Z,0
2017-03-16T01:39:06.541Z,0
2017-03-16T01:39:46.920Z,0
2017-03-16T01:41:59.593Z,0
2017-03-16T01:42:40.012Z,0
2017-03-16T01:43:20.467Z,0
2017-03-16T01:44:00.908Z,0
2017-03-16T01:44:41.304Z,0
2017-03-16T01:45:21.741Z,0
2017-03-16T01:47:34.423Z,0
2017-03-16T01:48:14.841Z,0
2017-03-16T01:48:55.248Z,0
2017-03-16T01:49:35.663Z,0
2017-03-16T01:50:16.079Z,0
2017-03-16T01:50:56.471Z,0
2017-03-16T01:51:36.878Z,0
2017-03-16T01:54:04.735Z,0
2017-03-16T01:54:45.155Z,0
2017-03-16T01:55:25.549Z,0
2017-03-16T01:56:05.998Z,0
2017-03-16T01:56:46.441Z,0
2017-03-16T01:57:26.867Z,0
2017-03-16T01:58:07.291Z,0
2017-03-16T01:58:47.730Z,0
2017-03-16T02:01:15.549Z,0
2017-03-16T02:01:55.999Z,0
2017-03-16T02:02:37.203Z,0
2017-03-16T02:03:17.626Z,0
2017-03-16T02:05:30.855Z,0
2017-03-16T02:06:11.247Z,0
2017-03-16T02:06:51.693Z,0
2017-03-16T02:07:32.118Z,0
2017-03-16T02:08:12.555Z,0
2017-03-16T02:08:53.682Z,0
2017-03-16T02:09:34.130Z,0
2017-03-16T02:10:14.574Z,0
2017-03-16T02:10:55.000Z,0
2017-03-16T02:11:35.412Z,0
2017-03-16T02:12:15.865Z,0
2017-03-16T02:12:56.330Z,0
2017-03-16T02:13:36.759Z,0
2017-03-16T02:14:17.171Z,0
2017-03-16T02:14:57.599Z,0
2017-03-16T02:15:38.049Z,0
2017-03-16T02:16:18.501Z,0
2017-03-16T02:16:59.660Z,0
2017-03-16T02:17:40.042Z,0
2017-03-16T02:18:21.095Z,0
2017-03-16T02:19:01.487Z,0
2017-03-16T02:19:41.885Z,0
2017-03-16T02:20:22.289Z,0
2017-03-16T02:22:34.980Z,0
2017-03-16T02:23:15.382Z,0
2017-03-16T02:25:28.030Z,0
2017-03-16T02:26:08.459Z,0
2017-03-16T02:26:48.883Z,0
2017-03-16T02:27:29.316Z,0
2017-03-16T02:28:09.761Z,0
2017-03-16T02:28:50.197Z,0
2017-03-16T02:29:30.646Z,0
2017-03-16T02:30:11.061Z,0
2017-03-16T02:30:51.484Z,0
2017-03-16T02:31:31.940Z,0
2017-03-16T02:32:12.388Z,0
2017-03-16T02:32:52.807Z,0
2017-03-16T02:33:33.221Z,0
2017-03-16T02:34:13.653Z,0
2017-03-16T02:34:54.102Z,0
2017-03-16T02:35:34.513Z,0
2017-03-16T02:36:14.951Z,0
2017-03-16T02:36:55.392Z,0
2017-03-16T02:37:35.803Z,0
2017-03-16T02:38:16.225Z,0
2017-03-16T02:40:33.943Z,0
2017-03-16T02:41:14.387Z,0
2017-03-16T02:41:54.793Z,0
2017-03-16T02:42:35.223Z,0
2017-03-16T02:43:15.638Z,0
2017-03-16T02:43:56.097Z,0
2017-03-16T02:44:36.487Z,0
2017-03-16T02:45:16.867Z,0
2017-03-16T02:47:44.702Z,0
2017-03-16T02:48:25.146Z,0
2017-03-16T02:49:05.575Z,0
2017-03-16T02:49:46.033Z,0
2017-03-16T02:50:27.412Z,0
2017-03-16T02:52:55.871Z,0
2017-03-16T02:53:36.321Z,0
2017-03-16T02:54:16.765Z,0
2017-03-16T02:54:57.219Z,0
2017-03-16T02:55:37.639Z,0
2017-03-16T02:56:18.056Z,0
2017-03-16T02:56:58.509Z,0
2017-03-16T02:57:38.941Z,0
2017-03-16T02:58:20.115Z,0
2017-03-16T02:59:00.569Z,0
2017-03-16T02:59:41.002Z,0
2017-03-16T03:00:21.450Z,0
2017-03-16T03:01:01.888Z,0
2017-03-16T03:01:42.337Z,0
2017-03-16T03:02:22.762Z,0
2017-03-16T03:03:03.180Z,0
2017-03-16T03:03:43.597Z,0
2017-03-16T03:04:24.036Z,0
2017-03-16T03:05:04.467Z,0
2017-03-16T03:05:44.910Z,0
2017-03-16T03:06:25.357Z,0
2017-03-16T03:07:05.795Z,0
2017-03-16T03:07:46.235Z,0
2017-03-16T03:08:26.673Z,0
2017-03-16T03:09:07.116Z,0
2017-03-16T03:09:47.563Z,0
2017-03-16T03:10:27.983Z,0
2017-03-16T03:11:08.428Z,0
2017-03-16T03:11:48.869Z,0
2017-03-16T03:12:29.300Z,0
2017-03-16T03:13:09.728Z,0
2017-03-16T03:13:50.154Z,0
2017-03-16T03:14:30.596Z,0
2017-03-16T03:15:11.072Z,0
2017-03-16T03:15:51.501Z,0
2017-03-16T03:18:09.239Z,0
2017-03-16T03:18:49.666Z,0
2017-03-16T03:19:30.106Z,0
2017-03-16T03:20:10.557Z,0
2017-03-16T03:20:50.987Z,0
2017-03-16T03:22:48.532Z,0
2017-03-16T03:23:28.929Z,0
2017-03-16T03:24:09.313Z,0
2017-03-16T03:24:49.744Z,0
2017-03-16T03:25:30.129Z,0
2017-03-16T03:26:10.506Z,0
2017-03-16T03:26:50.914Z,0
2017-03-16T03:27:31.279Z,0
2017-03-16T03:28:11.693Z,0
2017-03-16T03:28:52.086Z,0
2017-03-16T03:29:32.493Z,0
2017-03-16T03:31:45.211Z,0
2017-03-16T03:32:25.633Z,0
2017-03-16T03:33:06.081Z,0
2017-03-16T03:35:38.998Z,0
2017-03-16T03:36:19.415Z,0
2017-03-16T03:36:59.825Z,0
2017-03-16T03:37:40.231Z,0
2017-03-16T03:38:20.643Z,0
2017-03-16T03:39:01.565Z,0
2017-03-16T03:39:41.981Z,0
2017-03-16T03:40:22.383Z,0
2017-03-16T03:41:02.745Z,0
2017-03-16T03:41:43.141Z,0
2017-03-16T03:42:23.537Z,0
2017-03-16T03:43:03.966Z,0
2017-03-16T03:43:44.359Z,0
2017-03-16T03:44:24.772Z,0
2017-03-16T03:45:05.162Z,0
2017-03-16T03:45:45.580Z,0
2017-03-16T03:46:25.977Z,0
2017-03-16T03:47:06.381Z,0
2017-03-16T03:47:47.569Z,0
2017-03-16T03:48:27.976Z,0
2017-03-16T03:49:08.381Z,0
2017-03-16T03:49:48.791Z,0
2017-03-16T03:50:29.214Z,0
2017-03-16T03:51:09.639Z,0
2017-03-16T03:53:22.316Z,0
2017-03-16T03:54:02.707Z,0
2017-03-16T03:54:43.123Z,0
2017-03-16T03:55:24.088Z,0
2017-03-16T03:56:04.518Z,0
2017-03-16T03:56:44.935Z,0
2017-03-16T03:59:17.822Z,0
2017-03-16T03:59:58.270Z,0
2017-03-16T04:00:38.677Z,0
2017-03-16T04:01:19.093Z,0
2017-03-16T04:02:01.433Z,0
2017-03-16T04:02:41.883Z,0
2017-03-16T04:03:22.320Z,0
2017-03-16T04:05:40.094Z,0
2017-03-16T04:06:21.510Z,0
2017-03-16T04:07:01.928Z,0
2017-03-16T04:07:42.994Z,0
2017-03-16T04:08:23.462Z,0
2017-03-16T04:09:03.863Z,0
2017-03-16T04:09:44.291Z,0
2017-03-16T04:10:24.713Z,0
2017-03-16T04:11:05.107Z,0
2017-03-16T04:13:32.972Z,0
2017-03-16T04:14:13.389Z,0
2017-03-16T04:14:53.835Z,0
2017-03-16T04:15:34.267Z,0
2017-03-16T04:16:14.692Z,0
2017-03-16T04:16:55.102Z,0
2017-03-16T04:17:35.507Z,0
2017-03-16T04:18:15.922Z,0
2017-03-16T04:20:33.668Z,0
2017-03-16T04:21:14.094Z,0
2017-03-16T04:23:26.728Z,0
2017-03-16T04:24:07.157Z,0
2017-03-16T04:24:47.581Z,0
2017-03-16T04:25:27.965Z,0
2017-03-16T04:26:08.366Z,0
2017-03-16T04:26:48.769Z,0
2017-03-16T04:27:29.180Z,0
2017-03-16T04:28:09.588Z,0
2017-03-16T04:28:50.001Z,0
2017-03-16T04:29:30.447Z,0
2017-03-16T04:30:11.560Z,0
2017-03-16T04:30:51.935Z,0
2017-03-16T04:33:04.766Z,0
2017-03-16T04:33:45.130Z,0
2017-03-16T04:34:25.550Z,0
2017-03-16T04:35:05.916Z,0
2017-03-16T04:35:47.306Z,0
2017-03-16T04:36:27.698Z,0
2017-03-16T04:37:08.134Z,0
2017-03-16T04:37:49.362Z,0
2017-03-16T04:38:29.652Z,0
2017-03-16T04:39:10.066Z,0
2017-03-16T04:39:50.458Z,0
2017-03-16T04:40:30.839Z,0
2017-03-16T04:41:11.254Z,0
2017-03-16T04:41:52.627Z,0
2017-03-16T04:42:33.013Z,0
2017-03-16T04:43:13.385Z,0
2017-03-16T04:43:53.817Z,0
2017-03-16T04:44:34.248Z,0
2017-03-16T04:45:14.625Z,0
2017-03-16T04:45:55.035Z,0
2017-03-16T04:46:35.488Z,0
2017-03-16T04:47:15.900Z,0
2017-03-16T04:49:44.421Z,0
2017-03-16T04:52:02.126Z,0
2017-03-16T04:52:42.529Z,0
2017-03-16T04:53:22.950Z,0
2017-03-16T04:54:03.416Z,0
2017-03-16T04:54:43.845Z,0
2017-03-16T04:55:24.290Z,0
2017-03-16T04:56:04.702Z,0
2017-03-16T04:56:45.122Z,0
2017-03-16T04:57:25.571Z,0
2017-03-16T04:58:05.978Z,0
2017-03-16T04:58:46.395Z,0
2017-03-16T04:59:26.820Z,0
2017-03-16T05:01:24.396Z,0
2017-03-16T05:02:04.800Z,0
2017-03-16T05:02:45.195Z,0
2017-03-16T05:03:25.577Z,0
2017-03-16T05:04:05.978Z,0
2017-03-16T05:04:46.400Z,0
2017-03-16T05:05:26.788Z,0
2017-03-16T05:06:07.229Z,0
2017-03-16T05:06:47.577Z,0
2017-03-16T05:07:27.985Z,0
2017-03-16T05:08:08.368Z,0
2017-03-16T05:10:41.830Z,4
2017-03-16T05:11:22.245Z,0
2017-03-16T05:12:02.684Z,4
2017-03-16T05:12:43.098Z,4
2017-03-16T05:13:23.500Z,4
2017-03-16T05:14:03.912Z,4
2017-03-16T05:14:44.338Z,4
2017-03-16T05:15:24.784Z,8
2017-03-16T05:16:05.196Z,8
2017-03-16T05:16:45.635Z,8
2017-03-16T05:17:26.068Z,8
2017-03-16T05:18:06.493Z,8
2017-03-16T05:18:46.922Z,12
2017-03-16T05:19:27.365Z,16
2017-03-16T05:20:07.800Z,16
2017-03-16T05:20:48.179Z,20
2017-03-16T05:22:45.765Z,24
2017-03-16T05:23:26.194Z,28
2017-03-16T05:24:07.304Z,32
2017-03-16T05:24:47.743Z,36
2017-03-16T05:25:28.186Z,40
2017-03-16T05:26:08.602Z,44
2017-03-16T05:26:49.082Z,48
2017-03-16T05:27:29.469Z,56
2017-03-16T05:28:09.897Z,60
2017-03-16T05:28:50.327Z,64
2017-03-16T05:29:30.768Z,72
2017-03-16T05:30:11.177Z,76
2017-03-16T05:30:51.605Z,88
2017-03-16T05:31:32.043Z,96
2017-03-16T05:33:44.694Z,128
2017-03-16T05:34:25.812Z,136
2017-03-16T05:36:53.607Z,184
2017-03-16T05:37:34.029Z,192
2017-03-16T05:38:14.477Z,208
2017-03-16T05:38:54.893Z,224
2017-03-16T05:39:35.317Z,236
2017-03-16T05:40:15.771Z,252
2017-03-16T05:40:57.831Z,264
2017-03-16T05:41:38.260Z,284
2017-03-16T05:42:18.668Z,296
2017-03-16T05:42:59.063Z,312
2017-03-16T05:43:39.503Z,332
2017-03-16T05:44:19.932Z,352
2017-03-16T05:45:00.374Z,368
2017-03-16T05:45:40.820Z,388
2017-03-16T05:46:21.253Z,412
2017-03-16T05:48:33.926Z,488
2017-03-16T05:49:14.352Z,508
2017-03-16T05:49:54.691Z,532
2017-03-16T05:50:35.107Z,552
2017-03-16T05:51:15.532Z,576
2017-03-16T05:51:55.912Z,604
2017-03-16T05:52:36.286Z,628
2017-03-16T05:53:16.704Z,652
2017-03-16T05:55:14.285Z,732
2017-03-16T05:55:54.684Z,760
2017-03-16T05:56:35.138Z,788
2017-03-16T05:59:02.934Z,896
2017-03-16T05:59:43.362Z,928
2017-03-16T06:00:23.803Z,960
2017-03-16T06:01:04.212Z,988
2017-03-16T06:01:44.660Z,1020
2017-03-16T06:02:25.096Z,1056
2017-03-16T06:03:05.504Z,1092
2017-03-16T06:03:45.946Z,1124
2017-03-16T06:04:26.359Z,1160
2017-03-16T06:05:06.770Z,1196
2017-03-16T06:05:47.214Z,1232
2017-03-16T06:06:27.665Z,1272
2017-03-16T06:07:08.095Z,1308
2017-03-16T06:07:48.518Z,1344
2017-03-16T06:08:28.946Z,1380
2017-03-16T06:09:09.378Z,1416
2017-03-16T06:09:49.822Z,1456
2017-03-16T06:10:30.232Z,1492
2017-03-16T06:11:10.671Z,1528
2017-03-16T06:11:51.094Z,1560
2017-03-16T06:12:31.490Z,1596
2017-03-16T06:13:11.936Z,1632
2017-03-16T06:13:52.359Z,1664
2017-03-16T06:16:10.103Z,1808
2017-03-16T06:16:50.528Z,1848
2017-03-16T06:17:30.977Z,1888
2017-03-16T06:18:11.434Z,1932
2017-03-16T06:18:51.870Z,1972
2017-03-16T06:19:32.351Z,2008
2017-03-16T06:20:12.876Z,2048
2017-03-16T06:20:53.303Z,2084
2017-03-16T06:21:33.738Z,2124
2017-03-16T06:22:14.165Z,2172
2017-03-16T06:22:54.616Z,2212
2017-03-16T06:23:35.016Z,2252
2017-03-16T06:25:47.651Z,2396
2017-03-16T06:26:28.062Z,2444
2017-03-16T06:27:08.449Z,2492
2017-03-16T06:27:48.871Z,2532
2017-03-16T06:28:29.271Z,2572
2017-03-16T06:29:09.706Z,2604
2017-03-16T06:29:50.078Z,2644
2017-03-16T06:30:30.486Z,2676
2017-03-16T06:31:10.884Z,2704
2017-03-16T06:31:51.263Z,2732
2017-03-16T06:32:31.670Z,2760
2017-03-16T06:33:12.049Z,2800
2017-03-16T06:35:09.668Z,2904
2017-03-16T06:35:50.095Z,2940
2017-03-16T06:36:30.504Z,2984
2017-03-16T06:37:10.927Z,3024
2017-03-16T06:37:51.362Z,3056
2017-03-16T06:38:31.795Z,3084
2017-03-16T06:39:12.238Z,3120
2017-03-16T06:39:52.674Z,3152
2017-03-16T06:40:33.124Z,3184
2017-03-16T06:41:13.566Z,3220
2017-03-16T06:41:53.998Z,3252
2017-03-16T06:42:34.434Z,3284
2017-03-16T06:43:14.854Z,3324
2017-03-16T06:43:55.302Z,3360
2017-03-16T06:44:35.735Z,3408
2017-03-16T06:45:16.189Z,3440
2017-03-16T06:45:56.583Z,3488
2017-03-16T06:48:09.222Z,3604
2017-03-16T06:48:49.647Z,3584
2017-03-16T06:49:30.068Z,3632
2017-03-16T06:50:10.522Z,3716
2017-03-16T06:50:50.942Z,3768
2017-03-16T06:51:31.382Z,3820
2017-03-16T06:52:11.811Z,3844
2017-03-16T06:52:52.254Z,3876
2017-03-16T06:53:32.679Z,3920
2017-03-16T06:54:13.109Z,3952
2017-03-16T06:54:53.566Z,3988
2017-03-16T06:55:33.990Z,4020
2017-03-16T06:56:14.426Z,4056
2017-03-16T06:56:54.858Z,4100
2017-03-16T06:57:35.303Z,4148
2017-03-16T06:58:15.761Z,4184
2017-03-16T06:58:56.227Z,4232
2017-03-16T06:59:36.651Z,4280
2017-03-16T07:00:17.081Z,4320
2017-03-16T07:00:57.512Z,4364
2017-03-16T07:01:37.964Z,4404
2017-03-16T07:02:18.410Z,4436
2017-03-16T07:02:58.855Z,4464
2017-03-16T07:03:39.276Z,4488
2017-03-16T07:04:19.723Z,4520
2017-03-16T07:05:00.161Z,4548
2017-03-16T07:05:40.611Z,4572
2017-03-16T07:06:21.027Z,4608
2017-03-16T07:07:01.476Z,4648
2017-03-16T07:07:41.894Z,4684
2017-03-16T07:08:22.358Z,4724
2017-03-16T07:09:02.800Z,4768
2017-03-16T07:11:20.580Z,5160
2017-03-16T07:12:01.005Z,5496
2017-03-16T07:12:41.465Z,6132
2017-03-16T07:13:21.928Z,6808
2017-03-16T07:14:02.385Z,7452
2017-03-16T07:14:42.827Z,7932
2017-03-16T07:15:23.321Z,8208
2017-03-16T07:16:03.767Z,8372
2017-03-16T07:16:44.191Z,8456
2017-03-16T07:17:25.272Z,8576
2017-03-16T07:18:05.710Z,8676
2017-03-16T07:18:46.163Z,8824
2017-03-16T07:19:26.642Z,8984
2017-03-16T07:20:07.080Z,9128
2017-03-16T07:20:47.566Z,9232
2017-03-16T07:21:27.963Z,9328
2017-03-16T07:22:08.403Z,9420
2017-03-16T07:22:48.849Z,9532
2017-03-16T07:23:29.359Z,9676
2017-03-16T07:24:09.792Z,9812
2017-03-16T07:24:50.325Z,9940
2017-03-16T07:25:30.680Z,10072
2017-03-16T07:26:11.141Z,10184
2017-03-16T07:28:44.146Z,10696
2017-03-16T07:29:24.581Z,10836
2017-03-16T07:30:05.037Z,10944
2017-03-16T07:30:45.521Z,11040
2017-03-16T07:31:25.994Z,11180
2017-03-16T07:32:06.435Z,11276
2017-03-16T07:32:46.960Z,11416
2017-03-16T07:33:27.390Z,11492
2017-03-16T07:34:07.846Z,11688
2017-03-16T07:34:48.292Z,11812
2017-03-16T07:35:28.722Z,11924
2017-03-16T07:36:09.194Z,12024
2017-03-16T07:36:49.660Z,12176
2017-03-16T07:39:17.630Z,12716
2017-03-16T07:39:58.115Z,12844
2017-03-16T07:40:38.599Z,12764
2017-03-16T07:41:19.078Z,12620
2017-03-16T07:41:59.598Z,12664
2017-03-16T07:42:40.182Z,12820
2017-03-16T07:43:20.654Z,12748
2017-03-16T07:44:01.141Z,13036
2017-03-16T07:44:41.623Z,13244
2017-03-16T07:45:22.103Z,13284
2017-03-16T07:47:50.080Z,13772
2017-03-16T07:48:30.555Z,13500
2017-03-16T07:49:11.034Z,12776
2017-03-16T07:49:51.484Z,11444
2017-03-16T07:50:31.936Z,9808
2017-03-16T07:51:12.379Z,8544
2017-03-16T07:51:52.830Z,7628
2017-03-16T07:52:33.296Z,7112
2017-03-16T07:53:13.788Z,6960
2017-03-16T07:55:31.570Z,11532
2017-03-16T07:56:12.056Z,12992
2017-03-16T07:56:52.508Z,14064
2017-03-16T07:57:32.962Z,14760
2017-03-16T07:58:13.413Z,15132
2017-03-16T08:00:26.116Z,15936
2017-03-16T08:01:06.542Z,15968
2017-03-16T08:03:39.580Z,13808
2017-03-16T08:04:20.041Z,11952
2017-03-16T08:05:00.526Z,10140
2017-03-16T08:05:41.009Z,8760
2017-03-16T08:06:21.481Z,7672
2017-03-16T08:07:02.001Z,7200
2017-03-16T08:07:42.470Z,6940
2017-03-16T08:08:22.966Z,6956
2017-03-16T08:09:03.455Z,7036
2017-03-16T08:09:43.906Z,7124
2017-03-16T08:10:24.412Z,7112
2017-03-16T08:11:04.928Z,7104
2017-03-16T08:11:45.382Z,7172
2017-03-16T08:12:25.830Z,7272
2017-03-16T08:13:06.293Z,7228
2017-03-16T08:13:46.733Z,7304
2017-03-16T08:14:27.199Z,7380
2017-03-16T08:15:07.700Z,7368
2017-03-16T08:15:48.135Z,7440
2017-03-16T08:18:05.988Z,7516
2017-03-16T08:18:46.475Z,7408
2017-03-16T08:19:26.951Z,7376
2017-03-16T08:20:07.442Z,7696
2017-03-16T08:20:47.931Z,8232
2017-03-16T08:21:28.447Z,9080
2017-03-16T08:22:08.943Z,10776
2017-03-16T08:22:49.425Z,13044
2017-03-16T08:23:29.924Z,15736
2017-03-16T08:24:10.420Z,16288
2017-03-16T08:26:28.273Z,19136
2017-03-16T08:27:08.757Z,19776
2017-03-16T08:27:49.233Z,22080
2017-03-16T08:28:29.786Z,22112
2017-03-16T08:29:10.274Z,21568
2017-03-16T08:31:43.319Z,42624
2017-03-16T08:32:23.817Z,48000
2017-03-16T08:33:04.284Z,43904
2017-03-16T08:33:44.808Z,35904
2017-03-16T08:34:25.306Z,28064
2017-03-16T08:35:05.762Z,23872
2017-03-16T08:35:46.243Z,21312
2017-03-16T08:36:26.729Z,20736
2017-03-16T08:37:07.281Z,20672
2017-03-16T08:37:47.695Z,20640
2017-03-16T08:38:28.173Z,19968
2017-03-16T08:39:08.682Z,18944
2017-03-16T08:39:49.166Z,18496
2017-03-16T08:42:07.149Z,18944
2017-03-16T08:42:47.625Z,19040
2017-03-16T08:43:28.186Z,19424
2017-03-16T08:44:08.743Z,19840
2017-03-16T08:44:49.270Z,20224
2017-03-16T08:45:29.765Z,20544
2017-03-16T08:46:10.280Z,23264
2017-03-16T08:46:50.763Z,34176
2017-03-16T08:47:31.250Z,48896
2017-03-16T08:48:11.796Z,63008
2017-03-16T08:48:52.312Z,69760
2017-03-16T08:49:32.786Z,70624
2017-03-16T08:50:13.297Z,72704
2017-03-16T08:50:53.824Z,70112
2017-03-16T08:51:34.302Z,68640
2017-03-16T08:52:14.808Z,69312
2017-03-16T08:52:55.306Z,71808
2017-03-16T08:53:35.864Z,67808
2017-03-16T08:54:16.399Z,70848
2017-03-16T08:54:56.900Z,68352
2017-03-16T08:55:37.419Z,67776
2017-03-16T08:56:17.878Z,67968
2017-03-16T08:58:35.703Z,68320
2017-03-16T08:59:16.216Z,67264
2017-03-16T08:59:56.714Z,69088
2017-03-16T09:00:37.205Z,70880
2017-03-16T09:01:17.717Z,72736
2017-03-16T09:01:58.184Z,70496
2017-03-16T09:02:38.688Z,68672
2017-03-16T09:04:56.627Z,71776
2017-03-16T09:05:37.892Z,73536
2017-03-16T09:06:18.356Z,72832
2017-03-16T09:06:58.813Z,71968
2017-03-16T09:07:39.308Z,70592
2017-03-16T09:08:24.676Z,71008
2017-03-16T09:09:05.281Z,71168
2017-03-16T09:09:45.763Z,71968
2017-03-16T09:10:26.278Z,74656
2017-03-16T09:11:06.720Z,76864
2017-03-16T09:11:47.184Z,78336
2017-03-16T09:12:28.180Z,77376
2017-03-16T09:15:01.772Z,77984
2017-03-16T09:15:42.270Z,76800
2017-03-16T09:16:22.721Z,75904
2017-03-16T09:17:03.209Z,74400
2017-03-16T09:17:43.703Z,74880
2017-03-16T09:18:24.184Z,76896
2017-03-16T09:19:04.665Z,79264
2017-03-16T09:19:45.144Z,76416
2017-03-16T09:20:25.642Z,57184
2017-03-16T09:21:06.117Z,36544
2017-03-16T09:21:46.597Z,24704
2017-03-16T09:22:27.070Z,24352
2017-03-16T09:23:07.541Z,27200
2017-03-16T09:23:48.055Z,30208
2017-03-16T09:24:28.535Z,33152
2017-03-16T09:25:08.992Z,33824
2017-03-16T09:25:49.451Z,25216
2017-03-16T09:26:29.929Z,16352
2017-03-16T09:27:10.406Z,12704
2017-03-16T09:27:50.908Z,12592
2017-03-16T09:28:31.426Z,12468
2017-03-16T09:29:11.885Z,12408
2017-03-16T09:29:52.353Z,12464
2017-03-16T09:30:32.843Z,12612
2017-03-16T09:33:05.871Z,18112
2017-03-16T09:33:46.432Z,36800
2017-03-16T09:34:26.971Z,56992
2017-03-16T09:35:07.419Z,71040
2017-03-16T09:35:47.936Z,68128
2017-03-16T09:36:28.488Z,51456
2017-03-16T09:37:08.986Z,29952
2017-03-16T09:39:21.710Z,24416
2017-03-16T09:40:02.199Z,25856
2017-03-16T09:40:42.691Z,26464
2017-03-16T09:41:23.183Z,26592
2017-03-16T09:42:03.647Z,26592
2017-03-16T09:42:44.110Z,27904
2017-03-16T09:43:24.571Z,28416
2017-03-16T09:45:38.028Z,28736
2017-03-16T09:46:18.456Z,28160
2017-03-16T09:46:59.670Z,27968
2017-03-16T09:47:40.292Z,28288
2017-03-16T09:48:21.305Z,28832
2017-03-16T09:50:39.177Z,25760
2017-03-16T09:51:19.711Z,24512
2017-03-16T09:52:00.250Z,23488
2017-03-16T09:52:40.713Z,22848
2017-03-16T09:55:13.807Z,20704
2017-03-16T09:55:54.217Z,20928
2017-03-16T09:56:34.709Z,21472
2017-03-16T09:57:15.179Z,22016
2017-03-16T09:57:55.672Z,23424
2017-03-16T09:58:36.144Z,42112
2017-03-16T09:59:16.654Z,69312
2017-03-16T09:59:57.122Z,80576
2017-03-16T10:00:37.622Z,89856
2017-03-16T10:01:18.156Z,90176
2017-03-16T10:01:58.625Z,88352
2017-03-16T10:02:39.099Z,88768
2017-03-16T10:03:19.576Z,88160
2017-03-16T10:04:00.091Z,90816
2017-03-16T10:04:40.570Z,87168
2017-03-16T10:05:21.123Z,84768
2017-03-16T10:06:01.592Z,81536
2017-03-16T10:06:42.104Z,81728
2017-03-16T10:07:22.591Z,81120
2017-03-16T10:08:03.119Z,83392
2017-03-16T10:08:43.648Z,85408
2017-03-16T10:09:24.210Z,87392
2017-03-16T10:10:04.722Z,88448
2017-03-16T10:10:45.235Z,89344
2017-03-16T10:11:25.726Z,90080
2017-03-16T10:12:06.217Z,90368
2017-03-16T10:12:46.717Z,90944
2017-03-16T10:13:27.229Z,91200
2017-03-16T10:14:07.710Z,91488
2017-03-16T10:14:48.209Z,91040
2017-03-16T10:15:28.683Z,90528
2017-03-16T10:16:09.148Z,88832
2017-03-16T10:16:49.638Z,88288
2017-03-16T10:17:30.118Z,84864
2017-03-16T10:18:10.616Z,76352
2017-03-16T10:18:51.140Z,72384
2017-03-16T10:19:31.649Z,72704
2017-03-16T10:20:12.233Z,77952
2017-03-16T10:20:52.696Z,76512
2017-03-16T10:21:33.163Z,75424
2017-03-16T10:22:13.679Z,73824
2017-03-16T10:22:54.189Z,75456
2017-03-16T10:23:34.700Z,74560
2017-03-16T10:24:15.182Z,73600
2017-03-16T10:24:55.666Z,73984
2017-03-16T10:25:36.178Z,73888
2017-03-16T10:26:16.648Z,69120
2017-03-16T10:26:57.126Z,69056
2017-03-16T10:27:37.606Z,69696
2017-03-16T10:28:18.136Z,71680
2017-03-16T10:28:58.674Z,74912
2017-03-16T10:31:16.550Z,74592
2017-03-16T10:31:57.011Z,73440
2017-03-16T10:32:37.497Z,70336
2017-03-16T10:33:17.979Z,70496
2017-03-16T10:33:58.483Z,71520
2017-03-16T10:34:38.965Z,68032
2017-03-16T10:35:20.293Z,70656
2017-03-16T10:36:00.789Z,71392
2017-03-16T10:36:41.275Z,69056
2017-03-16T10:37:21.720Z,69568
2017-03-16T10:38:02.209Z,67936
2017-03-16T10:38:42.698Z,67840
2017-03-16T10:39:23.202Z,71552
2017-03-16T10:40:03.714Z,75904
2017-03-16T10:40:44.195Z,77728
2017-03-16T10:41:24.723Z,78016
2017-03-16T10:42:05.214Z,80128
2017-03-16T10:42:45.693Z,81824
2017-03-16T10:43:26.231Z,83424
2017-03-16T10:44:06.744Z,84608
2017-03-16T10:46:35.386Z,85984
2017-03-16T10:47:15.885Z,69728
2017-03-16T10:47:56.366Z,45664
2017-03-16T10:48:36.877Z,28096
2017-03-16T10:49:17.389Z,25216
2017-03-16T10:49:57.892Z,23936
2017-03-16T10:50:38.390Z,23488
2017-03-16T10:51:18.865Z,23264
2017-03-16T10:51:59.380Z,23232
2017-03-16T10:52:39.871Z,23360
2017-03-16T10:55:07.834Z,32864
2017-03-16T10:55:48.304Z,56224
2017-03-16T10:56:28.784Z,79680
2017-03-16T10:57:09.250Z,86720
2017-03-16T10:59:42.292Z,87264
2017-03-16T11:00:22.785Z,87168
2017-03-16T11:01:03.276Z,87424
2017-03-16T11:03:21.081Z,87968
2017-03-16T11:04:01.596Z,87136
2017-03-16T11:04:42.121Z,88224
2017-03-16T11:05:22.612Z,89536
2017-03-16T11:06:03.108Z,89216
2017-03-16T11:06:43.605Z,90496
2017-03-16T11:07:24.107Z,90112
2017-03-16T11:08:04.609Z,91456
2017-03-16T11:08:45.113Z,91200
2017-03-16T11:09:25.672Z,89376
2017-03-16T11:11:43.536Z,91232
2017-03-16T11:12:24.030Z,93792
2017-03-16T11:13:04.527Z,92384
2017-03-16T11:13:45.029Z,91104
2017-03-16T11:14:25.528Z,92032
2017-03-16T11:15:06.035Z,92224
2017-03-16T11:15:46.539Z,93472
2017-03-16T11:16:27.071Z,92640
2017-03-16T11:18:39.816Z,91936
2017-03-16T11:19:20.302Z,90336
2017-03-16T11:20:00.809Z,91136
2017-03-16T11:20:41.342Z,93280
2017-03-16T11:21:21.851Z,93312
2017-03-16T11:22:02.420Z,95072